createdAt,value
2022-10-01T00:07:49.480Z,82.95
2022-10-01T00:18:10.815Z,82.69
2022-10-01T00:28:32.510Z,82.78
2022-10-01T00:38:54.282Z,83.10
2022-10-01T00:49:17.413Z,82.47
2022-10-01T00:59:39.150Z,83.14
2022-10-01T01:10:01.323Z,84.37
2022-10-01T01:20:25.656Z,83.62
2022-10-01T01:30:49.389Z,86.42
2022-10-01T01:41:11.586Z,90.78
2022-10-01T01:51:36.362Z,93.91
2022-10-01T02:01:59.096Z,96.91
2022-10-01T02:12:43.115Z,99.64
2022-10-01T02:23:13.409Z,100.00
2022-10-01T02:33:36.367Z,100.00
2022-10-01T02:44:01.341Z,100.00
2022-10-01T02:54:26.812Z,100.00
2022-10-01T03:04:48.572Z,100.00
2022-10-01T03:15:10.421Z,100.00
2022-10-01T03:25:32.009Z,100.00
2022-10-01T03:35:53.374Z,100.00
2022-10-01T03:46:14.857Z,100.00
2022-10-01T03:56:36.310Z,100.00
2022-10-01T04:06:57.672Z,100.00
2022-10-01T04:17:19.019Z,100.00
2022-10-01T04:27:41.065Z,100.00
2022-10-01T04:38:04.008Z,100.00
2022-10-01T04:48:25.426Z,100.00
2022-10-01T04:58:46.816Z,100.00
2022-10-01T05:09:08.200Z,100.00
2022-10-01T05:19:30.657Z,100.00
2022-10-01T05:29:52.485Z,100.00
2022-10-01T05:40:13.897Z,100.00
2022-10-01T05:50:39.217Z,100.00
2022-10-01T06:01:00.660Z,100.00
2022-10-01T06:11:24.261Z,100.00
2022-10-01T06:21:45.646Z,100.00
2022-10-01T06:32:08.003Z,100.00
2022-10-01T06:42:29.364Z,100.00
2022-10-01T06:52:51.132Z,100.00
2022-10-01T07:03:17.216Z,100.00
2022-10-01T07:13:38.558Z,100.00
2022-10-01T07:23:59.907Z,100.00
2022-10-01T07:34:22.235Z,100.00
2022-10-01T07:44:43.593Z,100.00
2022-10-01T07:55:06.180Z,100.00
2022-10-01T08:05:29.098Z,100.00
2022-10-01T08:15:53.404Z,100.00
2022-10-01T08:26:14.767Z,100.00
2022-10-01T08:36:37.804Z,100.00
2022-10-01T08:47:01.881Z,100.00
2022-10-01T08:57:37.024Z,100.00
2022-10-01T09:08:17.290Z,100.00
2022-10-01T09:18:54.046Z,100.00
2022-10-01T09:29:41.890Z,100.00
2022-10-01T09:40:12.815Z,100.00
2022-10-01T09:50:39.951Z,100.00
2022-10-01T10:01:01.496Z,100.00
2022-10-01T10:11:24.472Z,100.00
2022-10-01T10:22:09.106Z,100.00
2022-10-01T10:32:30.654Z,100.00
2022-10-01T10:42:53.360Z,100.00
2022-10-01T10:53:22.297Z,95.87
2022-10-01T11:03:46.426Z,98.25
2022-10-01T11:14:23.797Z,96.07
2022-10-01T11:24:48.407Z,95.02
2022-10-01T11:35:19.537Z,95.98
2022-10-01T11:45:43.447Z,89.93
2022-10-01T11:56:26.580Z,100.00
2022-10-01T12:06:54.260Z,100.00
2022-10-01T12:17:33.971Z,100.00
2022-10-01T12:28:04.636Z,100.00
2022-10-01T12:38:33.200Z,100.00
2022-10-01T12:49:02.977Z,100.00
2022-10-01T12:59:27.488Z,100.00
2022-10-01T13:10:02.519Z,100.00
2022-10-01T13:20:35.515Z,100.00
2022-10-01T13:31:01.406Z,100.00
2022-10-01T13:41:25.873Z,100.00
2022-10-01T13:51:47.378Z,100.00
2022-10-01T14:02:27.798Z,100.00
2022-10-01T14:13:08.533Z,96.17
2022-10-01T14:23:48.377Z,93.97
2022-10-01T14:34:29.803Z,92.39
2022-10-01T14:44:51.309Z,90.46
2022-10-01T14:55:13.713Z,93.55
2022-10-01T15:05:37.181Z,94.61
2022-10-01T15:15:59.664Z,95.11
2022-10-01T15:26:29.850Z,97.57
2022-10-01T15:36:52.267Z,95.58
2022-10-01T15:47:19.728Z,92.66
2022-10-01T15:57:42.190Z,97.09
2022-10-01T16:08:03.924Z,99.30
2022-10-01T16:18:25.454Z,100.00
2022-10-01T16:28:47.140Z,100.00
2022-10-01T16:39:08.830Z,100.00
2022-10-01T16:49:30.298Z,99.81
2022-10-01T16:59:51.862Z,100.00
2022-10-01T17:10:14.125Z,100.00
2022-10-01T17:20:37.577Z,100.00
2022-10-01T17:30:59.036Z,100.00
2022-10-01T17:41:20.568Z,100.00
2022-10-01T17:51:42.032Z,100.00
2022-10-01T18:02:18.625Z,100.00
2022-10-01T18:12:45.350Z,100.00
2022-10-01T18:23:07.314Z,100.00
2022-10-01T18:33:29.272Z,100.00
2022-10-01T18:43:50.815Z,100.00
2022-10-01T18:54:24.936Z,100.00
2022-10-01T19:04:49.519Z,100.00
2022-10-01T19:15:40.219Z,100.00
2022-10-01T19:26:22.538Z,100.00
2022-10-01T19:37:06.950Z,100.00
2022-10-01T19:47:34.533Z,100.00
2022-10-01T19:57:56.109Z,100.00
2022-10-01T20:08:40.578Z,100.00
2022-10-01T20:19:23.789Z,100.00
2022-10-01T20:30:04.852Z,100.00
2022-10-01T20:40:49.468Z,100.00
2022-10-01T20:51:40.167Z,100.00
2022-10-01T21:02:13.383Z,100.00
2022-10-01T21:12:42.455Z,100.00
2022-10-01T21:23:16.441Z,100.00
2022-10-01T21:33:54.062Z,100.00
2022-10-01T21:44:34.109Z,100.00
2022-10-01T21:55:14.354Z,100.00
2022-10-01T22:05:45.039Z,100.00
2022-10-01T22:16:10.139Z,100.00
2022-10-01T22:26:34.209Z,100.00
2022-10-01T22:37:01.877Z,100.00
2022-10-01T22:47:55.250Z,100.00
2022-10-01T22:58:16.695Z,100.00
2022-10-01T23:08:53.004Z,100.00
2022-10-01T23:20:01.064Z,100.00
2022-10-01T23:30:22.835Z,100.00
2022-10-01T23:40:45.494Z,100.00
2022-10-01T23:51:17.538Z,100.00
